createdAt,value
2023-01-31T00:01:15.500Z,6.20
2023-01-31T00:07:02.235Z,6.33
2023-01-31T00:12:49.232Z,6.40
2023-01-31T00:18:38.501Z,6.41
2023-01-31T00:24:25.860Z,6.37
2023-01-31T00:30:12.999Z,6.29
2023-01-31T00:35:59.799Z,6.55
2023-01-31T00:41:46.549Z,6.62
2023-01-31T00:47:34.407Z,6.72
2023-01-31T00:53:27.992Z,6.70
2023-01-31T00:59:15.125Z,6.69
2023-01-31T01:05:02.907Z,6.75
2023-01-31T01:10:51.336Z,6.77
2023-01-31T01:16:40.169Z,6.62
2023-01-31T01:22:27.101Z,6.77
2023-01-31T01:28:14.029Z,6.78
2023-01-31T01:34:12.056Z,6.89
2023-01-31T01:39:59.031Z,6.83
2023-01-31T01:45:46.055Z,6.86
2023-01-31T01:51:34.563Z,6.74
2023-01-31T01:57:25.355Z,6.72
2023-01-31T02:03:12.449Z,6.59
2023-01-31T02:09:57.929Z,6.64
2023-01-31T02:15:45.834Z,6.77
2023-01-31T02:21:56.685Z,6.77
2023-01-31T02:28:08.049Z,6.80
2023-01-31T02:34:24.952Z,6.96
2023-01-31T02:40:40.742Z,6.85
2023-01-31T02:46:48.770Z,6.82
2023-01-31T02:52:45.731Z,6.91
2023-01-31T02:58:37.323Z,6.93
2023-01-31T03:04:43.537Z,6.82
2023-01-31T03:11:03.763Z,6.93
2023-01-31T03:17:25.133Z,6.85
2023-01-31T03:23:19.613Z,7.00
2023-01-31T03:29:20.004Z,7.09
2023-01-31T03:35:09.551Z,7.06
2023-01-31T03:41:10.520Z,6.94
2023-01-31T03:47:04.412Z,7.19
2023-01-31T03:53:07.650Z,7.31
2023-01-31T03:59:03.111Z,7.40
2023-01-31T04:05:10.647Z,7.42
2023-01-31T04:11:05.364Z,7.40
2023-01-31T04:16:52.097Z,7.32
2023-01-31T04:22:39.055Z,7.39
2023-01-31T04:28:25.720Z,7.27
2023-01-31T04:34:12.390Z,7.47
2023-01-31T04:39:59.110Z,7.51
2023-01-31T04:45:45.992Z,7.38
2023-01-31T04:51:32.971Z,7.62
2023-01-31T04:57:19.803Z,7.59
2023-01-31T05:03:06.545Z,7.60
2023-01-31T05:08:54.606Z,7.51
2023-01-31T05:14:41.292Z,7.71
2023-01-31T05:20:27.913Z,7.41
2023-01-31T05:26:15.043Z,7.74
2023-01-31T05:32:03.760Z,7.40
2023-01-31T05:37:52.860Z,7.55
2023-01-31T05:43:39.839Z,7.70
2023-01-31T05:49:26.546Z,7.61
2023-01-31T05:55:13.144Z,7.76
2023-01-31T06:00:59.908Z,7.83
2023-01-31T06:06:46.593Z,7.61
2023-01-31T06:12:33.307Z,7.39
2023-01-31T06:18:19.979Z,7.55
2023-01-31T06:24:07.194Z,7.52
2023-01-31T06:29:53.918Z,7.03
2023-01-31T06:35:41.122Z,7.00
2023-01-31T06:41:36.096Z,7.04
2023-01-31T06:47:24.294Z,7.40
2023-01-31T06:53:11.352Z,7.40
2023-01-31T06:58:58.121Z,7.44
2023-01-31T07:04:45.024Z,7.32
2023-01-31T07:10:31.679Z,7.52
2023-01-31T07:16:19.813Z,7.68
2023-01-31T07:22:06.714Z,7.65
2023-01-31T07:27:53.509Z,7.78
2023-01-31T07:33:41.096Z,7.72
2023-01-31T07:39:36.719Z,7.86
2023-01-31T07:45:24.203Z,7.94
2023-01-31T07:51:11.706Z,8.00
2023-01-31T07:56:58.397Z,8.02
2023-01-31T08:03:06.973Z,8.08
2023-01-31T08:08:54.913Z,8.06
2023-01-31T08:14:41.820Z,8.45
2023-01-31T08:20:29.364Z,8.55
2023-01-31T08:26:19.613Z,8.58
2023-01-31T08:32:06.475Z,8.59
2023-01-31T08:37:56.761Z,8.55
2023-01-31T08:43:58.286Z,8.68
2023-01-31T08:49:45.674Z,8.41
2023-01-31T08:55:35.304Z,8.62
2023-01-31T09:01:23.019Z,8.80
2023-01-31T09:07:09.935Z,8.71
2023-01-31T09:12:56.588Z,8.93
2023-01-31T09:18:43.387Z,8.73
2023-01-31T09:24:30.141Z,8.93
2023-01-31T09:30:17.108Z,9.26
2023-01-31T09:36:14.873Z,9.46
2023-01-31T09:42:18.354Z,9.72
2023-01-31T09:48:07.454Z,9.47
2023-01-31T09:53:56.758Z,9.89
2023-01-31T10:00:11.786Z,10.13
2023-01-31T10:06:29.304Z,10.17
2023-01-31T10:12:33.293Z,9.98
2023-01-31T10:18:36.439Z,9.86
2023-01-31T10:24:46.209Z,9.77
2023-01-31T10:30:58.115Z,10.06
2023-01-31T10:37:01.187Z,9.96
2023-01-31T10:43:11.555Z,10.27
2023-01-31T10:49:12.414Z,10.50
2023-01-31T10:55:18.281Z,10.63
2023-01-31T11:07:31.150Z,10.80
2023-01-31T11:13:39.649Z,10.91
2023-01-31T11:20:04.524Z,10.99
2023-01-31T11:25:54.111Z,11.22
2023-01-31T11:31:45.799Z,11.50
2023-01-31T11:37:34.726Z,11.60
2023-01-31T11:43:21.746Z,11.66
2023-01-31T11:49:24.453Z,11.89
2023-01-31T11:55:17.295Z,12.15
2023-01-31T12:01:08.997Z,12.51
2023-01-31T12:07:45.392Z,12.38
2023-01-31T12:13:32.479Z,12.29
2023-01-31T12:19:26.992Z,12.39
2023-01-31T12:25:35.409Z,12.52
2023-01-31T12:31:42.529Z,12.85
2023-01-31T12:37:41.717Z,13.10
2023-01-31T12:43:41.399Z,13.17
2023-01-31T12:50:03.490Z,13.11
2023-01-31T12:56:11.673Z,13.06
2023-01-31T13:02:24.073Z,12.70
2023-01-31T13:08:33.051Z,12.93
2023-01-31T13:14:27.507Z,12.84
2023-01-31T13:20:39.547Z,12.44
2023-01-31T13:26:33.200Z,12.81
2023-01-31T13:32:39.094Z,13.05
2023-01-31T13:38:34.306Z,12.92
2023-01-31T13:44:21.498Z,12.98
2023-01-31T13:50:20.667Z,13.07
2023-01-31T13:56:11.677Z,13.06
2023-01-31T14:02:03.873Z,13.12
2023-01-31T14:08:28.465Z,13.11
2023-01-31T14:14:39.404Z,13.11
2023-01-31T14:20:30.701Z,13.06
2023-01-31T14:26:54.567Z,13.17
2023-01-31T14:32:44.887Z,13.20
2023-01-31T14:38:52.508Z,13.24
2023-01-31T14:45:06.808Z,13.11
2023-01-31T14:51:00.777Z,12.56
2023-01-31T14:57:15.872Z,12.29
2023-01-31T15:03:07.697Z,12.35
2023-01-31T15:09:16.555Z,12.21
2023-01-31T15:15:05.549Z,12.08
2023-01-31T15:21:05.322Z,12.17
2023-01-31T15:26:54.845Z,12.12
2023-01-31T15:33:02.307Z,12.22
2023-01-31T15:38:58.467Z,11.93
2023-01-31T15:44:45.543Z,11.71
2023-01-31T15:50:34.234Z,11.65
2023-01-31T15:56:26.243Z,11.62
2023-01-31T16:02:40.228Z,11.30
2023-01-31T16:08:34.065Z,10.80
2023-01-31T16:14:22.266Z,10.88
2023-01-31T16:20:48.528Z,10.77
2023-01-31T16:26:38.776Z,10.84
2023-01-31T16:32:27.336Z,10.78
2023-01-31T16:38:26.853Z,10.79
2023-01-31T16:44:20.722Z,10.58
2023-01-31T16:50:22.677Z,10.85
2023-01-31T16:56:14.837Z,10.84
2023-01-31T17:02:03.593Z,10.86
2023-01-31T17:07:53.717Z,10.99
2023-01-31T17:13:40.713Z,10.89
2023-01-31T17:19:30.755Z,10.84
2023-01-31T17:25:24.853Z,10.73
2023-01-31T17:31:42.895Z,10.68
2023-01-31T17:37:40.467Z,10.57
2023-01-31T17:43:30.468Z,10.60
2023-01-31T17:49:27.501Z,10.70
2023-01-31T17:55:19.846Z,10.61
2023-01-31T18:01:09.740Z,10.56
2023-01-31T18:06:56.826Z,10.36
2023-01-31T18:12:54.755Z,10.37
2023-01-31T18:19:08.222Z,10.17
2023-01-31T18:24:57.680Z,10.47
2023-01-31T18:30:45.131Z,10.37
2023-01-31T18:36:35.283Z,10.39
2023-01-31T18:42:22.585Z,10.22
2023-01-31T18:48:11.756Z,10.00
2023-01-31T18:54:18.982Z,10.14
2023-01-31T19:00:07.268Z,10.07
2023-01-31T19:05:54.622Z,10.00
2023-01-31T19:11:41.866Z,9.84
2023-01-31T19:17:28.890Z,9.98
2023-01-31T19:23:16.113Z,9.94
2023-01-31T19:29:04.466Z,10.05
2023-01-31T19:34:53.920Z,9.98
2023-01-31T19:40:42.849Z,9.90
2023-01-31T19:46:34.105Z,9.85
2023-01-31T19:52:21.119Z,9.68
2023-01-31T19:58:08.249Z,9.79
2023-01-31T20:03:56.882Z,9.51
2023-01-31T20:09:46.641Z,9.40
2023-01-31T20:15:34.421Z,9.08
2023-01-31T20:21:22.201Z,9.20
2023-01-31T20:27:09.297Z,9.09
2023-01-31T20:32:56.051Z,9.10
2023-01-31T20:38:44.051Z,9.21
2023-01-31T20:44:30.885Z,9.19
2023-01-31T20:50:17.831Z,8.80
2023-01-31T20:56:10.011Z,8.77
2023-01-31T21:01:56.730Z,8.12
2023-01-31T21:07:43.862Z,7.92
2023-01-31T21:13:33.020Z,7.79
2023-01-31T21:19:19.991Z,7.78
2023-01-31T21:25:07.481Z,7.80
2023-01-31T21:31:03.044Z,7.68
2023-01-31T21:36:49.944Z,7.46
2023-01-31T21:42:42.762Z,7.29
2023-01-31T21:48:29.865Z,7.34
2023-01-31T21:54:16.569Z,7.23
2023-01-31T22:00:04.832Z,7.23
2023-01-31T22:05:51.708Z,7.14
2023-01-31T22:11:39.404Z,7.18
2023-01-31T22:17:26.357Z,7.10
2023-01-31T22:23:13.181Z,6.83
2023-01-31T22:29:06.079Z,6.90
2023-01-31T22:34:53.740Z,7.08
2023-01-31T22:40:45.251Z,6.84
2023-01-31T22:46:33.417Z,7.08
2023-01-31T22:52:20.174Z,6.85
2023-01-31T22:58:11.093Z,6.81
2023-01-31T23:10:43.117Z,7.09
2023-01-31T23:16:50.726Z,7.04
2023-01-31T23:22:38.231Z,6.78
2023-01-31T23:28:24.974Z,6.93
2023-01-31T23:34:11.713Z,6.81
2023-01-31T23:39:58.406Z,6.83
2023-01-31T23:45:46.948Z,7.11
2023-01-31T23:51:33.915Z,6.86
2023-01-31T23:57:24.359Z,6.72
